Time;durP1;ratioP1;P1;durP2;ratioP2;P2;SDS_P1;SDS_P2;PMS_P1;PMS_P2;Temp;Humidity;BMP_temperature;BMP_pressure;BME280_temperature;BME280_humidity;BME280_pressure;Samples;Min_cycle;Max_cycle;Signal;HPM_P1;HPM_P2
2022/09/17 00:01:00;;;;;;;;;4.00;2.00;;;;;13.30;56.56;101310.44;5080222;27;45249;-57
2022/09/17 00:03:27;;;;;;;;;4.33;1.00;;;;;13.28;56.28;101307.81;5086170;27;45560;-61
2022/09/17 00:06:08;;;;;;;;;2.00;2.00;;;;;13.34;56.33;101303.97;5079876;27;45608;-60
2022/09/17 00:08:36;;;;;;;;;2.00;2.00;;;;;13.37;56.22;101315.34;5079803;27;45408;-58
2022/09/17 00:11:13;;;;;;;;;2.00;2.00;;;;;13.33;56.71;101316.47;5080080;27;45449;-58
2022/09/17 00:13:40;;;;;;;;;1.33;1.33;;;;;13.29;56.63;101298.91;5078326;27;46177;-60
2022/09/17 00:16:06;;;;;;;;;1.00;1.00;;;;;13.35;56.80;101311.03;5082470;27;45411;-58
2022/09/17 00:18:35;;;;;;;;;1.33;1.33;;;;;13.33;56.88;101318.28;5107936;27;45425;-59
2022/09/17 00:21:02;;;;;;;;;1.00;1.00;;;;;13.30;57.06;101318.47;5084748;27;45322;-57
2022/09/17 00:23:28;;;;;;;;;3.00;1.67;;;;;13.26;57.44;101317.75;5083858;27;45297;-59
2022/09/17 00:25:53;;;;;;;;;2.33;1.33;;;;;13.11;57.02;101303.41;5100335;27;45425;-58
2022/09/17 00:28:19;;;;;;;;;2.67;2.67;;;;;13.17;57.75;101308.41;5100758;27;45353;-57
2022/09/17 00:30:45;;;;;;;;;1.00;0.00;;;;;13.22;57.34;101321.53;5098353;27;45415;-58
2022/09/17 00:33:13;;;;;;;;;1.67;1.67;;;;;13.25;57.23;101322.22;5097747;27;46200;-57
2022/09/17 00:35:38;;;;;;;;;1.00;1.00;;;;;13.19;57.92;101305.69;5097459;27;45347;-57
2022/09/17 00:38:04;;;;;;;;;2.33;2.00;;;;;13.16;57.38;101313.84;5098452;27;45409;-57
2022/09/17 00:40:30;;;;;;;;;3.33;3.00;;;;;13.18;57.60;101318.19;5099674;27;45476;-59
2022/09/17 00:42:55;;;;;;;;;2.00;1.00;;;;;13.23;57.13;101317.91;5098971;27;45362;-58
2022/09/17 00:45:22;;;;;;;;;2.00;2.00;;;;;13.28;57.30;101322.06;5098383;27;45444;-58
2022/09/17 00:47:59;;;;;;;;;2.00;2.00;;;;;13.27;57.39;101325.66;5098356;27;45437;-61
2022/09/17 00:50:37;;;;;;;;;1.00;1.00;;;;;13.28;57.42;101315.84;5098679;27;45313;-60
2022/09/17 00:53:15;;;;;;;;;1.00;1.00;;;;;13.28;56.90;101310.50;5112146;27;45532;-58
2022/09/17 00:56:13;;;;;;;;;1.33;1.00;;;;;13.27;57.96;101316.78;5078901;27;45433;-56
2022/09/17 00:58:39;;;;;;;;;1.00;1.00;;;;;13.21;57.89;101319.81;5078771;27;45436;-57
2022/09/17 01:01:05;;;;;;;;;1.00;1.00;;;;;13.16;57.98;101311.19;5079749;27;45370;-58
2022/09/17 01:03:32;;;;;;;;;0.33;0.33;;;;;13.19;57.74;101308.34;5097519;27;46003;-57
2022/09/17 01:06:28;;;;;;;;;1.67;0.00;;;;;13.20;57.50;101318.09;5098575;27;45290;-57
2022/09/17 01:09:20;;;;;;;;;1.00;1.00;;;;;13.22;57.41;101319.72;5097912;27;45380;-59
2022/09/17 01:12:02;;;;;;;;;1.00;1.00;;;;;13.22;57.49;101317.06;5086538;27;45498;-60
2022/09/17 01:14:49;;;;;;;;;1.00;1.00;;;;;13.22;57.40;101321.53;5078268;27;46373;-59
2022/09/17 01:17:29;;;;;;;;;4.00;1.00;;;;;13.21;57.10;101320.69;5098615;27;45436;-60
2022/09/17 01:20:17;;;;;;;;;1.00;1.00;;;;;13.19;57.07;101327.06;5099062;27;45700;-59
2022/09/17 01:23:01;;;;;;;;;0.67;0.67;;;;;13.19;57.17;101322.56;5097888;27;45651;-59
2022/09/17 01:26:15;;;;;;;;;0.00;0.00;;;;;13.19;57.78;101329.72;5094125;27;47116;-59
2022/09/17 01:28:52;;;;;;;;;1.00;1.00;;;;;13.16;57.70;101335.22;5099864;27;45207;-60
2022/09/17 01:31:39;;;;;;;;;1.00;1.00;;;;;13.14;58.08;101337.94;5078262;28;45493;-60
2022/09/17 01:34:26;;;;;;;;;1.33;1.33;;;;;13.10;58.01;101333.72;5078239;27;45553;-59
2022/09/17 01:37:07;;;;;;;;;1.00;1.00;;;;;13.12;57.96;101337.16;5078080;27;46070;-59
2022/09/17 01:39:56;;;;;;;;;1.00;1.00;;;;;13.11;57.58;101335.44;5077765;27;45275;-59
2022/09/17 01:42:27;;;;;;;;;1.00;1.00;;;;;13.08;58.28;101342.78;5076960;27;45358;-59
2022/09/17 01:45:08;;;;;;;;;1.67;1.67;;;;;13.00;58.11;101336.03;5082930;27;45425;-58
2022/09/17 01:47:50;;;;;;;;;2.00;2.00;;;;;13.02;58.83;101352.00;5081301;27;46163;-59
2022/09/17 01:50:26;;;;;;;;;1.00;1.00;;;;;13.02;58.07;101348.44;5080270;27;45412;-60
2022/09/17 01:52:54;;;;;;;;;0.00;0.00;;;;;12.91;58.27;101339.22;5085034;27;45544;-59
2022/09/17 01:55:27;;;;;;;;;1.33;1.00;;;;;12.88;59.40;101344.69;5078066;28;45250;-58
2022/09/17 01:57:57;;;;;;;;;1.00;1.00;;;;;12.82;59.26;101355.72;5096102;27;45408;-59
2022/09/17 02:00:22;;;;;;;;;1.00;1.00;;;;;12.84;58.65;101336.94;5079445;27;45478;-61
2022/09/17 02:02:59;;;;;;;;;3.00;1.33;;;;;12.89;58.59;101354.47;5090027;27;45727;-58
2022/09/17 02:05:28;;;;;;;;;1.00;1.00;;;;;12.89;58.65;101357.13;5098376;27;45391;-56
2022/09/17 02:08:06;;;;;;;;;1.00;1.00;;;;;12.89;58.77;101358.91;5097432;27;45352;-57
2022/09/17 02:10:39;;;;;;;;;2.33;1.00;;;;;12.87;59.16;101352.78;5097303;27;45299;-60
2022/09/17 02:13:28;;;;;;;;;2.00;1.00;;;;;12.81;58.83;101359.34;5097103;27;45317;-58
2022/09/17 02:16:04;;;;;;;;;1.00;1.00;;;;;12.73;58.83;101342.84;5077959;27;45374;-61
2022/09/17 02:18:40;;;;;;;;;2.33;1.00;;;;;12.68;58.96;101345.78;5083627;27;46593;-58
2022/09/17 02:21:16;;;;;;;;;1.33;1.00;;;;;12.73;58.74;101356.19;5096808;27;45460;-59
2022/09/17 02:23:58;;;;;;;;;1.00;1.00;;;;;12.75;58.63;101348.97;5089444;27;45326;-59
2022/09/17 02:26:26;;;;;;;;;1.00;1.00;;;;;12.62;59.43;101338.06;5077521;27;45759;-57
2022/09/17 02:29:06;;;;;;;;;0.00;0.00;;;;;12.63;60.17;101357.63;5092402;27;46718;-58
2022/09/17 02:31:32;;;;;;;;;3.00;2.00;;;;;12.61;59.73;101356.84;5097355;27;45457;-57
2022/09/17 02:34:02;;;;;;;;;3.00;1.33;;;;;12.56;59.56;101348.22;5097142;27;45248;-58
2022/09/17 02:36:30;;;;;;;;;1.00;1.00;;;;;12.52;59.68;101346.66;5096344;27;45476;-58
2022/09/17 02:39:01;;;;;;;;;3.00;1.00;;;;;12.47;60.35;101354.88;5091083;27;46418;-58
2022/09/17 02:41:51;;;;;;;;;0.00;0.00;;;;;12.49;59.98;101346.81;5108959;27;45524;-60
2022/09/17 02:44:19;;;;;;;;;1.00;0.67;;;;;12.44;60.22;101346.19;5090949;27;45225;-59
2022/09/17 02:47:19;;;;;;;;;5.00;0.67;;;;;12.26;59.75;101314.19;5097595;27;45227;-60
2022/09/17 02:50:26;;;;;;;;;3.33;1.00;;;;;12.50;59.66;101343.19;5096431;27;46019;-59
2022/09/17 02:53:18;;;;;;;;;1.00;1.00;;;;;12.48;59.34;101342.41;5091984;27;45400;-60
2022/09/17 02:56:12;;;;;;;;;1.00;1.00;;;;;12.45;59.95;101345.25;5076891;27;45318;-58
2022/09/17 02:59:00;;;;;;;;;1.00;1.00;;;;;12.38;59.85;101340.25;5076890;27;45385;-58
2022/09/17 03:01:43;;;;;;;;;1.00;1.00;;;;;12.30;60.09;101347.75;5081495;27;46502;-56
2022/09/17 03:04:14;;;;;;;;;0.33;0.33;;;;;12.32;60.00;101345.88;5085403;27;45465;-57
2022/09/17 03:06:43;;;;;;;;;1.00;1.00;;;;;12.37;59.51;101343.00;5075021;28;45547;-58
2022/09/17 03:09:09;;;;;;;;;1.00;1.00;;;;;12.43;59.47;101347.13;5076847;27;45562;-56
2022/09/17 03:11:34;;;;;;;;;1.00;1.00;;;;;12.35;59.76;101356.38;5093001;27;46697;-58
2022/09/17 03:13:59;;;;;;;;;2.00;0.00;;;;;12.29;59.81;101338.03;5096743;27;45394;-58
2022/09/17 03:16:25;;;;;;;;;3.33;2.00;;;;;12.32;60.22;101345.88;5097058;27;45420;-57
2022/09/17 03:18:50;;;;;;;;;1.00;1.00;;;;;12.26;59.62;101338.19;5096754;27;45583;-64
2022/09/17 03:21:16;;;;;;;;;2.00;1.00;;;;;12.27;60.49;101337.25;5097233;27;46224;-58
2022/09/17 03:23:41;;;;;;;;;2.00;1.00;;;;;12.27;60.00;101357.72;5088371;27;45389;-58
2022/09/17 03:26:06;;;;;;;;;0.67;0.67;;;;;12.23;60.42;101351.66;5091481;27;45353;-58
2022/09/17 03:28:32;;;;;;;;;0.00;0.00;;;;;12.19;60.46;101344.78;5094505;27;45218;-61
2022/09/17 03:30:57;;;;;;;;;1.00;1.00;;;;;12.26;59.68;101351.53;5076491;27;45389;-59
2022/09/17 03:33:23;;;;;;;;;2.67;1.67;;;;;12.30;60.08;101350.44;5078563;27;45251;-58
2022/09/17 03:35:48;;;;;;;;;0.67;0.67;;;;;12.32;59.77;101356.53;5080392;27;45552;-57
2022/09/17 03:38:14;;;;;;;;;1.00;1.00;;;;;12.35;60.10;101359.03;5096303;27;45372;-59
2022/09/17 03:40:40;;;;;;;;;1.33;1.33;;;;;12.35;59.82;101350.19;5100299;27;46173;-59
2022/09/17 03:43:06;;;;;;;;;1.00;1.00;;;;;12.33;59.37;101350.25;5099739;27;45470;-58
2022/09/17 03:45:31;;;;;;;;;3.00;1.00;;;;;12.39;59.79;101362.44;5081414;27;45388;-58
2022/09/17 03:47:57;;;;;;;;;1.00;1.00;;;;;12.33;60.39;101363.59;5087506;27;45562;-56
2022/09/17 03:50:23;;;;;;;;;1.00;1.00;;;;;12.20;60.91;101362.50;5098178;27;45287;-58
2022/09/17 03:52:48;;;;;;;;;0.67;0.33;;;;;12.19;60.59;101363.44;5096856;27;45374;-58
2022/09/17 03:55:15;;;;;;;;;0.67;0.67;;;;;12.15;60.47;101364.53;5078475;27;45296;-57
2022/09/17 03:57:40;;;;;;;;;5.00;1.67;;;;;12.17;59.91;101361.78;5079254;27;45514;-58
2022/09/17 04:00:06;;;;;;;;;2.33;0.67;;;;;12.16;59.90;101360.94;5079277;27;46384;-57
2022/09/17 04:02:32;;;;;;;;;2.00;1.00;;;;;12.18;60.70;101364.38;5097849;27;45169;-59
2022/09/17 04:04:57;;;;;;;;;0.00;0.00;;;;;12.21;60.09;101364.22;5099790;27;45255;-59
2022/09/17 04:07:22;;;;;;;;;1.00;1.00;;;;;12.19;60.56;101365.25;5098603;27;45382;-57
2022/09/17 04:09:48;;;;;;;;;1.00;1.00;;;;;12.25;60.37;101370.28;5097885;27;46736;-56
2022/09/17 04:12:13;;;;;;;;;3.00;3.00;;;;;12.22;60.23;101373.09;5099883;27;45626;-58
2022/09/17 04:14:38;;;;;;;;;2.67;1.00;;;;;12.19;60.25;101376.78;5099680;27;45294;-57
2022/09/17 04:17:04;;;;;;;;;0.00;0.00;;;;;12.17;60.44;101372.47;5089991;27;45511;-58
2022/09/17 04:19:29;;;;;;;;;1.00;1.00;;;;;12.16;60.44;101382.28;5089395;27;47091;-58
2022/09/17 04:21:54;;;;;;;;;1.00;1.00;;;;;12.11;60.95;101381.66;5078899;27;45295;-57
2022/09/17 04:24:20;;;;;;;;;2.00;2.00;;;;;12.11;60.61;101381.66;5092662;27;45470;-57
2022/09/17 04:26:45;;;;;;;;;1.00;1.00;;;;;12.11;60.64;101389.66;5098388;27;45709;-59
2022/09/17 04:29:11;;;;;;;;;1.00;1.00;;;;;12.03;61.00;101389.16;5097227;27;46191;-59
2022/09/17 04:31:36;;;;;;;;;1.00;1.00;;;;;11.97;60.98;101384.09;5088966;27;45477;-60
2022/09/17 04:34:02;;;;;;;;;1.00;1.00;;;;;12.01;61.29;101399.03;5099457;27;45422;-60
2022/09/17 04:36:27;;;;;;;;;0.00;0.00;;;;;12.00;61.40;101397.31;5096817;27;45550;-57
2022/09/17 04:38:52;;;;;;;;;3.00;1.67;;;;;11.84;61.40;101383.84;5099031;27;45994;-58
2022/09/17 04:41:18;;;;;;;;;2.00;2.00;;;;;11.97;61.39;101398.28;5098976;27;45395;-63
2022/09/17 04:43:44;;;;;;;;;1.67;1.67;;;;;11.97;61.24;101402.75;5098882;27;45290;-58
2022/09/17 04:46:09;;;;;;;;;1.00;1.00;;;;;11.91;61.72;101392.41;5098562;27;45558;-58
2022/09/17 04:48:35;;;;;;;;;1.33;1.00;;;;;11.87;61.95;101390.84;5098736;27;45483;-56
2022/09/17 04:51:00;;;;;;;;;2.00;2.00;;;;;11.93;61.98;101406.53;5097448;27;46382;-58
2022/09/17 04:53:25;;;;;;;;;1.00;1.00;;;;;11.91;61.65;101398.59;5080980;27;45290;-58
2022/09/17 04:55:51;;;;;;;;;1.00;1.00;;;;;11.82;61.72;101389.25;5078851;27;45503;-58
2022/09/17 04:58:16;;;;;;;;;1.00;1.00;;;;;11.85;61.85;101403.34;5094823;27;45295;-58
2022/09/17 05:00:42;;;;;;;;;1.00;1.00;;;;;11.82;62.01;101405.25;5102874;27;45473;-59
2022/09/17 05:03:07;;;;;;;;;2.25;1.00;;;;;11.80;62.55;101400.94;5097884;27;45405;-60
2022/09/17 05:05:33;;;;;;;;;2.67;1.67;;;;;11.79;62.55;101407.19;5081357;27;45539;-61
2022/09/17 05:07:58;;;;;;;;;1.00;1.00;;;;;11.77;62.54;101409.03;5078328;27;46205;-59
2022/09/17 05:10:25;;;;;;;;;1.00;1.00;;;;;11.74;62.77;101414.53;5079308;27;45418;-58
2022/09/17 05:12:55;;;;;;;;;0.50;0.50;;;;;11.71;62.81;101417.31;5077304;27;45337;-60
2022/09/17 05:15:22;;;;;;;;;2.00;1.00;;;;;11.68;62.85;101414.81;5078847;27;45177;-57
2022/09/17 05:17:48;;;;;;;;;1.25;1.25;;;;;11.68;62.85;101417.47;5078327;27;47199;-58
2022/09/17 05:20:14;;;;;;;;;1.00;1.00;;;;;11.69;63.10;101413.88;5078121;27;45365;-59
2022/09/17 05:22:47;;;;;;;;;1.00;1.00;;;;;11.65;62.95;101417.63;5078511;27;45315;-58
2022/09/17 05:25:14;;;;;;;;;1.00;1.00;;;;;11.64;63.22;101421.22;5084342;27;45524;-58
2022/09/17 05:27:39;;;;;;;;;2.00;1.00;;;;;11.61;63.35;101419.56;5097582;27;45309;-58
2022/09/17 05:30:07;;;;;;;;;1.00;1.00;;;;;11.63;63.23;101420.34;5097829;27;45334;-58
2022/09/17 05:32:33;;;;;;;;;1.75;1.00;;;;;11.63;63.56;101425.69;5097167;27;45283;-59
2022/09/17 05:34:58;;;;;;;;;1.50;1.50;;;;;11.58;63.22;101422.34;5098360;27;45491;-58
2022/09/17 05:37:24;;;;;;;;;3.00;3.00;;;;;11.56;64.09;101428.69;5094515;27;46154;-60
2022/09/17 05:39:50;;;;;;;;;2.25;2.25;;;;;11.51;63.57;101423.59;5076520;28;45597;-59
2022/09/17 05:42:15;;;;;;;;;2.00;1.00;;;;;11.51;63.45;101421.78;5097719;27;45285;-58
2022/09/17 05:44:40;;;;;;;;;2.00;1.00;;;;;11.51;63.90;101426.25;5078632;27;45360;-59
2022/09/17 05:47:06;;;;;;;;;2.67;1.00;;;;;11.51;63.68;101427.13;5077866;27;46341;-58
2022/09/17 05:49:31;;;;;;;;;1.67;1.67;;;;;11.49;63.39;101417.47;5077528;27;45307;-58
2022/09/17 05:51:57;;;;;;;;;1.00;1.00;;;;;11.50;63.25;101424.53;5084101;27;45212;-59
2022/09/17 05:54:22;;;;;;;;;1.00;1.00;;;;;11.50;63.72;101421.88;5097761;27;45273;-59
2022/09/17 05:56:52;;;;;;;;;1.00;1.00;;;;;11.40;63.78;101409.91;5096861;27;45858;-58
2022/09/17 05:59:17;;;;;;;;;2.00;2.00;;;;;11.51;63.56;101431.59;5095330;27;45524;-58
2022/09/17 06:01:43;;;;;;;;;1.50;1.50;;;;;11.47;64.08;101433.53;5078562;27;45264;-61
2022/09/17 06:04:09;;;;;;;;;1.00;1.00;;;;;11.48;63.40;101443.25;5076611;27;45346;-60
2022/09/17 06:06:35;;;;;;;;;3.00;2.00;;;;;11.48;63.85;101439.72;5077187;27;45380;-59
2022/09/17 06:09:01;;;;;;;;;2.25;1.00;;;;;11.53;63.59;101440.38;5082666;27;45276;-57
2022/09/17 06:11:27;;;;;;;;;2.25;1.25;;;;;11.55;62.88;101438.50;5106665;27;45412;-59
2022/09/17 06:13:53;;;;;;;;;1.00;1.00;;;;;11.55;63.12;101443.81;5096971;27;45428;-59
2022/09/17 06:16:20;;;;;;;;;3.00;2.00;;;;;11.54;63.30;101447.41;5096538;27;46134;-59
2022/09/17 06:18:46;;;;;;;;;1.00;1.00;;;;;11.55;63.17;101438.50;5097759;27;45371;-58
2022/09/17 06:21:11;;;;;;;;;2.50;1.50;;;;;11.58;62.99;101449.00;5097884;27;45905;-57
2022/09/17 06:23:37;;;;;;;;;2.33;2.33;;;;;11.57;63.12;101455.25;5090725;27;45822;-58
2022/09/17 06:26:04;;;;;;;;;3.00;1.67;;;;;11.55;63.23;101461.59;5078924;27;46095;-58
2022/09/17 06:28:31;;;;;;;;;4.00;2.33;;;;;11.61;62.94;101453.34;5077436;27;45306;-58
2022/09/17 06:31:02;;;;;;;;;1.33;1.33;;;;;11.64;63.03;101454.06;5077356;27;45349;-57
2022/09/17 06:33:29;;;;;;;;;2.00;1.00;;;;;11.59;63.46;101450.75;5085002;27;45470;-57
2022/09/17 06:36:00;;;;;;;;;2.00;2.00;;;;;11.53;63.71;101457.22;5096128;27;48484;-58
2022/09/17 06:38:30;;;;;;;;;1.00;1.00;;;;;11.58;62.64;101451.66;5097751;27;45495;-58
2022/09/17 06:40:56;;;;;;;;;1.50;1.00;;;;;11.70;62.52;101456.41;5097024;27;45354;-57
2022/09/17 06:43:22;;;;;;;;;2.00;2.00;;;;;11.72;61.33;101446.59;5096286;27;45655;-59
2022/09/17 06:46:01;;;;;;;;;2.00;2.00;;;;;11.77;61.57;101454.34;5096789;27;47139;-58
2022/09/17 06:48:28;;;;;;;;;4.50;1.25;;;;;11.83;61.41;101451.41;5085227;27;45323;-59
2022/09/17 06:50:55;;;;;;;;;1.00;1.00;;;;;11.89;61.13;101463.59;5093274;27;45377;-60
2022/09/17 06:53:22;;;;;;;;;2.00;1.00;;;;;11.91;61.11;101472.38;5094818;27;45498;-59
2022/09/17 06:55:47;;;;;;;;;3.00;2.00;;;;;11.94;60.94;101464.22;5099010;27;45454;-58
2022/09/17 06:58:13;;;;;;;;;2.00;1.67;;;;;11.89;61.25;101467.13;5098902;27;45433;-60
2022/09/17 07:00:39;;;;;;;;;3.00;1.00;;;;;11.92;61.34;101474.09;5086887;27;45268;-60
2022/09/17 07:03:04;;;;;;;;;2.00;2.00;;;;;11.89;60.54;101480.44;5077328;27;45598;-58
2022/09/17 07:05:31;;;;;;;;;2.00;2.00;;;;;11.90;60.72;101476.84;5096906;27;45956;-57
2022/09/17 07:08:01;;;;;;;;;1.50;1.50;;;;;11.88;60.53;101467.22;5087743;27;45509;-60
2022/09/17 07:10:27;;;;;;;;;1.00;1.00;;;;;11.93;60.33;101470.50;5087684;27;45490;-59
2022/09/17 07:12:53;;;;;;;;;2.50;2.00;;;;;11.93;60.36;101475.84;5095069;27;45567;-61
2022/09/17 07:15:19;;;;;;;;;2.75;1.50;;;;;11.93;60.84;101468.69;5078356;27;46008;-59
2022/09/17 07:17:45;;;;;;;;;3.00;2.00;;;;;12.01;60.72;101468.34;5094859;27;45414;-60
2022/09/17 07:20:11;;;;;;;;;1.67;0.67;;;;;12.04;60.31;101463.72;5097311;27;45366;-59
2022/09/17 07:22:36;;;;;;;;;2.33;1.00;;;;;12.15;60.09;101467.69;5108180;27;45506;-59
2022/09/17 07:25:02;;;;;;;;;1.00;1.00;;;;;12.20;59.76;101463.84;5096878;27;46294;-57
2022/09/17 07:27:28;;;;;;;;;1.00;1.00;;;;;12.11;59.22;101458.97;5095972;27;45328;-60
2022/09/17 07:29:54;;;;;;;;;2.67;1.00;;;;;12.18;59.14;101470.19;5098177;27;45510;-58
2022/09/17 07:32:19;;;;;;;;;2.00;1.00;;;;;12.21;58.42;101470.91;5094711;27;45650;-60
2022/09/17 07:34:45;;;;;;;;;3.00;1.00;;;;;12.18;58.64;101475.53;5095378;27;46346;-59
2022/09/17 07:37:10;;;;;;;;;1.00;1.00;;;;;12.20;58.03;101463.84;5095503;27;45299;-60
2022/09/17 07:39:35;;;;;;;;;1.00;1.00;;;;;12.12;58.20;101460.69;5098139;27;45152;-60
2022/09/17 07:42:02;;;;;;;;;2.00;2.00;;;;;12.18;58.28;101468.38;5090675;27;45665;-66
2022/09/17 07:44:28;;;;;;;;;1.00;1.00;;;;;12.27;58.46;101467.09;5074743;27;45924;-58
2022/09/17 07:46:53;;;;;;;;;1.00;1.00;;;;;12.32;57.87;101471.22;5075750;27;45251;-59
2022/09/17 07:49:18;;;;;;;;;1.00;1.00;;;;;12.44;57.93;101463.56;5079324;27;45502;-58
2022/09/17 07:51:44;;;;;;;;;3.33;1.67;;;;;12.42;57.42;101470.78;5076031;27;45305;-60
2022/09/17 07:54:09;;;;;;;;;1.33;1.00;;;;;12.39;57.42;101466.47;5086802;27;45601;-58
2022/09/17 07:56:35;;;;;;;;;1.00;1.00;;;;;12.44;57.37;101467.09;5097052;27;45412;-60
2022/09/17 07:59:02;;;;;;;;;1.00;1.00;;;;;12.50;57.55;101472.16;5095949;27;45969;-59
2022/09/17 08:01:27;;;;;;;;;1.00;1.00;;;;;12.62;57.12;101470.63;5079417;27;45395;-60
2022/09/17 08:03:53;;;;;;;;;2.00;1.00;;;;;12.68;57.21;101475.69;5091899;27;45407;-59
2022/09/17 08:06:22;;;;;;;;;0.00;0.00;;;;;12.81;56.88;101476.78;5099835;27;45324;-58
2022/09/17 08:08:48;;;;;;;;;3.00;3.00;;;;;12.89;56.37;101477.25;5096323;27;45377;-58
2022/09/17 08:11:19;;;;;;;;;1.33;1.33;;;;;12.94;56.27;101472.53;5095163;27;45506;-57
2022/09/17 08:13:48;;;;;;;;;3.00;1.00;;;;;13.01;56.48;101462.38;5095683;27;47702;-58
2022/09/17 08:16:14;;;;;;;;;1.00;1.00;;;;;13.08;55.49;101474.50;5095108;27;45921;-59
2022/09/17 08:18:44;;;;;;;;;2.00;1.00;;;;;13.14;55.50;101467.94;5093728;27;45305;-58
2022/09/17 08:21:14;;;;;;;;;0.00;0.00;;;;;13.14;55.46;101473.28;5089883;27;45517;-58
2022/09/17 08:23:41;;;;;;;;;0.33;0.33;;;;;13.11;55.45;101468.13;5098962;27;45339;-56
2022/09/17 08:26:11;;;;;;;;;2.00;0.33;;;;;13.23;55.56;101473.69;5095165;27;45378;-58
2022/09/17 08:28:37;;;;;;;;;1.00;0.00;;;;;13.21;54.68;101461.38;5089356;27;45265;-57
2022/09/17 08:31:05;;;;;;;;;2.00;1.00;;;;;13.25;55.12;101476.28;5088689;27;45541;-59
2022/09/17 08:33:36;;;;;;;;;1.33;1.00;;;;;13.38;54.67;101477.38;5089851;27;45543;-57
2022/09/17 08:36:02;;;;;;;;;0.00;0.00;;;;;13.47;55.20;101498.25;5097659;27;45307;-57
2022/09/17 08:38:29;;;;;;;;;2.00;1.00;;;;;13.57;54.88;101488.81;5098318;27;45227;-59
2022/09/17 08:41:00;;;;;;;;;0.00;0.00;;;;;13.75;54.02;101483.38;5099164;27;45481;-59
2022/09/17 08:43:27;;;;;;;;;1.00;1.00;;;;;14.03;53.56;101486.25;5098156;27;45471;-58
2022/09/17 08:45:57;;;;;;;;;1.00;1.00;;;;;14.25;53.38;101485.03;5098211;27;45474;-59
2022/09/17 08:48:30;;;;;;;;;0.00;0.00;;;;;14.51;52.70;101497.81;5082147;27;45474;-61
2022/09/17 08:50:55;;;;;;;;;0.67;0.67;;;;;14.80;52.14;101500.59;5103697;27;45363;-60
2022/09/17 08:53:57;;;;;;;;;3.00;2.00;;;;;14.98;51.62;101476.28;5097503;27;45606;-60
2022/09/17 08:56:25;;;;;;;;;2.00;1.00;;;;;15.46;50.97;101503.69;5087599;27;45458;-63
2022/09/17 08:59:07;;;;;;;;;0.00;0.00;;;;;15.67;50.12;101504.22;5080062;27;45467;-60
2022/09/17 09:01:58;;;;;;;;;0.00;0.00;;;;;15.89;49.86;101495.66;5099942;27;45591;-60
2022/09/17 09:04:30;;;;;;;;;1.00;1.00;;;;;16.04;49.37;101505.41;5096819;27;45523;-59
2022/09/17 09:07:17;;;;;;;;;0.00;0.00;;;;;16.13;49.70;101464.53;5081000;27;45822;-59
2022/09/17 09:10:05;;;;;;;;;1.00;1.00;;;;;16.59;48.38;101500.94;5080747;27;45462;-56
2022/09/17 09:12:35;;;;;;;;;0.00;0.00;;;;;16.82;48.98;101494.06;5095513;27;45640;-57
2022/09/17 09:15:04;;;;;;;;;2.00;0.00;;;;;17.03;46.92;101495.25;5089231;27;46612;-59
2022/09/17 09:17:42;;;;;;;;;3.67;0.67;;;;;17.05;47.00;101504.94;5079875;27;45443;-61
2022/09/17 09:20:19;;;;;;;;;3.00;1.00;;;;;17.25;46.75;101498.19;5091594;27;45332;-61
2022/09/17 09:22:46;;;;;;;;;2.33;1.67;;;;;17.50;45.52;101496.47;5095719;27;45428;-60
2022/09/17 09:25:28;;;;;;;;;0.00;0.00;;;;;17.72;46.30;101498.53;5109881;27;46228;-60
2022/09/17 09:28:00;;;;;;;;;1.00;1.00;;;;;18.05;45.13;101496.06;5117593;27;45352;-57
2022/09/17 09:30:36;;;;;;;;;1.00;1.00;;;;;18.20;44.30;101494.94;5117779;27;45316;-58
2022/09/17 09:33:16;;;;;;;;;1.00;1.00;;;;;18.30;44.18;101505.06;5102912;27;45557;-58
2022/09/17 09:35:43;;;;;;;;;0.00;0.00;;;;;18.26;44.48;101497.19;5096830;27;45765;-59
2022/09/17 09:38:08;;;;;;;;;1.00;1.00;;;;;18.20;43.32;101489.56;5090577;27;45425;-58
2022/09/17 09:40:45;;;;;;;;;2.00;0.00;;;;;18.02;43.52;101501.69;5100901;27;45483;-66
2022/09/17 09:43:21;;;;;;;;;0.00;0.00;;;;;17.94;44.16;101504.94;5101200;27;45549;-66
2022/09/17 09:46:04;;;;;;;;;6.00;4.00;;;;;18.09;43.70;101507.47;5118288;27;46189;-56
2022/09/17 09:48:37;;;;;;;;;1.00;1.00;;;;;17.93;42.78;101496.97;5100002;27;45536;-59
2022/09/17 09:51:21;;;;;;;;;3.00;3.00;;;;;18.12;43.59;101502.75;5104974;27;45574;-57
2022/09/17 09:54:17;;;;;;;;;0.67;0.67;;;;;18.14;43.72;101500.81;5085782;27;46768;-59
2022/09/17 09:56:55;;;;;;;;;2.00;1.00;;;;;18.10;42.30;101495.72;5086722;27;46576;-59
2022/09/17 09:59:20;;;;;;;;;0.00;0.00;;;;;17.87;42.53;101481.28;5079320;27;45943;-59
2022/09/17 10:01:46;;;;;;;;;3.00;1.00;;;;;18.00;42.11;101498.25;5094330;27;46085;-61
2022/09/17 10:04:22;;;;;;;;;0.00;0.00;;;;;17.80;42.44;101485.38;5098383;27;45173;-63
2022/09/17 10:06:51;;;;;;;;;2.00;1.00;;;;;17.80;43.01;101483.53;5091129;27;45365;-62
2022/09/17 10:09:20;;;;;;;;;3.00;1.33;;;;;17.86;41.98;101495.72;5095967;27;45326;-56
2022/09/17 10:12:12;;;;;;;;;0.00;0.00;;;;;17.68;42.01;101496.03;5088420;27;45477;-61
2022/09/17 10:14:40;;;;;;;;;1.00;1.00;;;;;17.45;42.58;101502.19;5093865;27;45410;-59
2022/09/17 10:17:24;;;;;;;;;1.00;1.00;;;;;17.42;43.88;101497.00;5097696;27;45344;-59
2022/09/17 10:19:58;;;;;;;;;1.00;1.00;;;;;17.40;43.12;101494.41;5101022;27;45482;-61
2022/09/17 10:22:39;;;;;;;;;2.00;0.67;;;;;17.10;42.37;101497.44;5095640;27;45450;-55
2022/09/17 10:25:17;;;;;;;;;3.00;0.00;;;;;17.24;43.24;101498.28;5093530;27;45443;-59
2022/09/17 10:27:47;;;;;;;;;1.00;1.00;;;;;17.30;43.42;101504.09;5097466;27;46500;-57
2022/09/17 10:30:16;;;;;;;;;0.00;0.00;;;;;17.29;42.27;101497.00;5097863;27;45317;-62
2022/09/17 10:32:42;;;;;;;;;2.00;0.00;;;;;17.50;43.10;101500.03;5097408;27;45452;-58
2022/09/17 10:35:13;;;;;;;;;0.00;0.00;;;;;17.73;42.50;101489.50;5096937;27;45478;-59
2022/09/17 10:37:48;;;;;;;;;2.67;1.00;;;;;17.58;41.00;101496.81;5091123;27;45699;-60
2022/09/17 10:40:17;;;;;;;;;0.00;0.00;;;;;17.61;41.24;101496.56;5104160;27;45507;-59
2022/09/17 10:42:42;;;;;;;;;0.00;0.00;;;;;17.68;41.71;101490.66;5090457;27;45567;-59
2022/09/17 10:45:24;;;;;;;;;2.00;1.00;;;;;17.70;41.53;101487.84;5094457;27;45639;-59
2022/09/17 10:47:50;;;;;;;;;1.00;1.00;;;;;17.74;41.11;101491.22;5093986;27;45391;-62
2022/09/17 10:50:23;;;;;;;;;1.33;1.33;;;;;17.67;40.88;101486.22;5090997;27;45459;-61
2022/09/17 10:52:54;;;;;;;;;0.33;0.33;;;;;17.49;40.16;101486.69;5091090;27;45404;-59
2022/09/17 10:55:37;;;;;;;;;0.00;0.00;;;;;17.71;40.24;101486.03;5094832;27;45378;-59
2022/09/17 10:58:19;;;;;;;;;1.00;1.00;;;;;17.89;38.96;101479.34;5091450;27;46407;-58
2022/09/17 11:01:09;;;;;;;;;0.00;0.00;;;;;17.91;40.74;101477.38;5093545;27;45568;-59
2022/09/17 11:03:58;;;;;;;;;0.00;0.00;;;;;18.09;39.84;101465.25;5095197;27;48772;-59
2022/09/17 11:06:38;;;;;;;;;0.67;0.67;;;;;18.32;38.96;101462.69;5096711;27;45418;-58
2022/09/17 11:09:21;;;;;;;;;1.00;0.00;;;;;18.20;37.75;101462.63;5096146;27;48136;-59
2022/09/17 11:11:58;;;;;;;;;1.33;1.00;;;;;18.36;39.54;101456.09;5107329;27;45411;-60
2022/09/17 11:14:39;;;;;;;;;0.00;0.00;;;;;18.55;38.11;101453.75;5100207;27;45471;-60
2022/09/17 11:17:15;;;;;;;;;0.00;0.00;;;;;18.43;38.43;101457.38;5088558;27;45259;-59
2022/09/17 11:20:04;;;;;;;;;1.00;0.00;;;;;18.22;39.53;101449.91;5076507;27;46375;-58
2022/09/17 11:22:44;;;;;;;;;1.33;0.33;;;;;18.10;39.21;101455.34;5077574;27;45497;-59
2022/09/17 11:25:32;;;;;;;;;0.00;0.00;;;;;18.24;39.08;101439.91;5097180;27;45283;-59
2022/09/17 11:28:25;;;;;;;;;1.00;1.00;;;;;18.54;38.58;101438.56;5095038;27;45433;-60
2022/09/17 11:31:06;;;;;;;;;0.00;0.00;;;;;18.68;37.60;101437.56;5098525;27;46338;-62
2022/09/17 11:33:31;;;;;;;;;0.00;0.00;;;;;18.82;37.10;101438.19;5096838;27;45354;-58
2022/09/17 11:36:04;;;;;;;;;0.00;0.00;;;;;18.94;35.35;101441.78;5096633;27;45199;-61
2022/09/17 11:38:37;;;;;;;;;0.00;0.00;;;;;18.61;34.57;101433.56;5098920;27;45296;-61
2022/09/17 11:41:20;;;;;;;;;4.00;1.00;;;;;18.53;36.57;101426.09;5096140;27;46145;-63
2022/09/17 11:44:09;;;;;;;;;3.00;1.00;;;;;18.78;35.67;101425.97;5094997;27;45575;-62